createdAt,value
2019-02-21T00:01:07.361Z,88.7
2019-02-21T00:06:07.121Z,88.02
2019-02-21T00:11:07.477Z,87.76
2019-02-21T00:16:07.360Z,87.85
2019-02-21T00:20:07.232Z,88.19
2019-02-21T00:25:06.486Z,89.23
2019-02-21T00:30:08.613Z,90.23
2019-02-21T00:35:06.776Z,91.89
2019-02-21T00:40:07.684Z,92.77
2019-02-21T00:45:08.404Z,92.67
2019-02-21T00:50:06.919Z,93.8
2019-02-21T00:55:06.132Z,93.81
2019-02-21T00:59:07.845Z,93.32
2019-02-21T01:04:06.578Z,94.35
2019-02-21T01:09:06.777Z,94.55
2019-02-21T01:14:06.785Z,94.53
2019-02-21T01:19:07.482Z,95.6
2019-02-21T01:24:06.712Z,94.73
2019-02-21T01:29:07.222Z,93.71
2019-02-21T01:34:06.411Z,93.04
2019-02-21T01:38:07.434Z,92.67
2019-02-21T01:43:06.711Z,92.42
2019-02-21T01:48:06.973Z,92.54
2019-02-21T01:53:06.940Z,92.31
2019-02-21T01:58:06.770Z,91.54
2019-02-21T02:03:10.302Z,91.42
2019-02-21T02:08:06.705Z,91.16
2019-02-21T02:13:08.326Z,90.69
2019-02-21T02:17:08.032Z,90.46
2019-02-21T02:22:06.945Z,90.51
2019-02-21T02:27:06.847Z,90.45
2019-02-21T02:32:10.416Z,90.47
2019-02-21T02:37:07.345Z,89.75
2019-02-21T02:42:07.635Z,89.51
2019-02-21T02:47:07.343Z,89.86
2019-02-21T02:52:07.286Z,91.06
2019-02-21T02:56:07.570Z,91.09
2019-02-21T03:01:06.922Z,91.49
2019-02-21T03:06:06.964Z,91.36
2019-02-21T03:11:07.359Z,91.42
2019-02-21T03:16:06.823Z,91.35
2019-02-21T03:21:06.883Z,92.07
2019-02-21T03:26:06.923Z,92.64
2019-02-21T03:31:07.677Z,92.52
2019-02-21T03:35:07.925Z,92.57
2019-02-21T03:40:06.501Z,92.54
2019-02-21T03:45:08.575Z,92.98
2019-02-21T03:50:06.942Z,93.05
2019-02-21T03:55:07.527Z,93.3
2019-02-21T04:00:09.291Z,93.82
2019-02-21T04:05:06.947Z,94.4
2019-02-21T04:10:07.220Z,94.09
2019-02-21T04:14:07.432Z,93.64
2019-02-21T04:19:07.171Z,93.89
2019-02-21T04:24:07.386Z,94.15
2019-02-21T04:29:06.892Z,93.96
2019-02-21T04:34:06.748Z,93.72
2019-02-21T04:39:08.138Z,93.7
2019-02-21T04:44:06.738Z,93.69
2019-02-21T04:49:07.745Z,93.97
2019-02-21T04:53:07.108Z,93.64
2019-02-21T04:58:06.808Z,93.3
2019-02-21T05:03:07.348Z,93.22
2019-02-21T05:08:07.060Z,93.32
2019-02-21T05:13:06.881Z,93.12
2019-02-21T05:18:07.298Z,93.03
2019-02-21T05:23:06.774Z,93.19
2019-02-21T05:28:07.449Z,93.31
2019-02-21T05:32:07.939Z,92.72
2019-02-21T05:37:06.887Z,92.25
2019-02-21T05:42:07.615Z,92.03
2019-02-21T05:47:07.585Z,91.55
2019-02-21T05:52:07.450Z,91.8
2019-02-21T05:57:07.318Z,91.66
2019-02-21T06:02:07.178Z,91.49
2019-02-21T06:07:06.357Z,91.26
2019-02-21T06:11:07.588Z,91.23
2019-02-21T06:16:07.322Z,91.37
2019-02-21T06:21:07.359Z,91.23
2019-02-21T06:26:07.515Z,91.05
2019-02-21T06:31:07.073Z,91.35
2019-02-21T06:36:07.101Z,91.62
2019-02-21T06:41:06.876Z,91.74
2019-02-21T06:46:07.447Z,92.03
2019-02-21T06:50:06.682Z,92.09
2019-02-21T06:55:07.641Z,92.09
2019-02-21T06:56:06.738Z,92.09
2019-02-21T07:00:09.054Z,91.85
2019-02-21T07:05:06.225Z,91.9
2019-02-21T07:10:07.325Z,92.29
2019-02-21T07:15:08.083Z,91.44
2019-02-21T07:20:07.477Z,89.47
2019-02-21T07:25:06.835Z,89.68
2019-02-21T07:29:07.589Z,88.16
2019-02-21T07:34:07.850Z,87.96
2019-02-21T07:35:06.277Z,87.96
2019-02-21T07:39:21.159Z,88.79
2019-02-21T07:44:11.861Z,86.85
2019-02-21T07:49:06.943Z,86.28
2019-02-21T07:54:06.878Z,85.67
2019-02-21T07:59:06.726Z,85.66
2019-02-21T08:04:07.171Z,86.73
2019-02-21T08:08:10.033Z,86.51
2019-02-21T08:13:07.622Z,86.17
2019-02-21T08:18:06.779Z,86.73
2019-02-21T08:23:07.598Z,82.94
2019-02-21T08:28:07.483Z,81.39
2019-02-21T08:33:07.273Z,79.61
2019-02-21T08:38:07.103Z,79.11
2019-02-21T08:43:07.318Z,80.06
2019-02-21T08:47:07.503Z,78.51
2019-02-21T08:52:06.580Z,77.61
2019-02-21T08:57:07.204Z,77.1
2019-02-21T09:02:07.345Z,74.88
2019-02-21T09:07:07.188Z,76.42
2019-02-21T09:12:07.482Z,76.55
2019-02-21T09:17:07.399Z,76.02
2019-02-21T09:22:07.407Z,76.33
2019-02-21T09:26:07.657Z,76.29
2019-02-21T09:31:06.961Z,76
2019-02-21T09:36:07.632Z,75.95
2019-02-21T09:41:06.342Z,76.25
2019-02-21T09:46:07.634Z,76.4
2019-02-21T09:51:06.852Z,76.87
2019-02-21T09:56:07.411Z,78.31
2019-02-21T10:00:08.384Z,78.6
2019-02-21T10:05:07.684Z,77.68
2019-02-21T10:10:08.891Z,77.27
2019-02-21T10:15:07.147Z,75.97
2019-02-21T10:20:07.029Z,75.95
2019-02-21T10:25:07.752Z,75.1
2019-02-21T10:30:07.178Z,74.62
2019-02-21T10:35:06.798Z,74.84
2019-02-21T10:39:07.701Z,74.31
2019-02-21T10:40:06.252Z,74.31
2019-02-21T10:44:06.859Z,74.92
2019-02-21T10:49:06.205Z,73.77
2019-02-21T10:54:06.847Z,73.56
2019-02-21T10:59:07.653Z,73.07
2019-02-21T11:04:07.640Z,71.68
2019-02-21T11:09:08.073Z,72.57
2019-02-21T11:13:07.406Z,71.69
2019-02-21T11:18:07.255Z,71.89
2019-02-21T11:19:07.386Z,71.89
2019-02-21T11:23:06.760Z,71.07
2019-02-21T11:28:07.460Z,70.38
2019-02-21T11:33:07.291Z,68.19
2019-02-21T11:38:07.245Z,68.46
2019-02-21T11:43:06.735Z,69.27
2019-02-21T11:48:09.519Z,67.67
2019-02-21T11:52:09.986Z,69.28
2019-02-21T11:57:06.900Z,67.29
2019-02-21T12:02:07.106Z,66.54
2019-02-21T12:07:07.066Z,65.65
2019-02-21T12:12:07.444Z,66.48
2019-02-21T12:17:06.326Z,67.64
2019-02-21T12:22:07.103Z,66.28
2019-02-21T12:27:07.009Z,66.58
2019-02-21T12:31:07.963Z,65.43
2019-02-21T12:32:07.052Z,65.43
2019-02-21T12:36:07.061Z,65.03
2019-02-21T12:41:07.438Z,64.48
2019-02-21T12:46:06.630Z,65.57
2019-02-21T12:51:07.125Z,65.52
2019-02-21T12:56:06.987Z,64.78
2019-02-21T13:01:07.157Z,62.97
2019-02-21T13:06:07.037Z,62.46
2019-02-21T13:10:07.058Z,62.36
2019-02-21T13:15:08.517Z,62.35
2019-02-21T13:20:06.988Z,62.61
2019-02-21T13:25:06.855Z,63.87
2019-02-21T13:30:07.425Z,63.81
2019-02-21T13:35:07.482Z,63.92
2019-02-21T13:40:07.646Z,62.81
2019-02-21T13:44:07.483Z,63.14
2019-02-21T13:49:07.744Z,64.25
2019-02-21T13:54:07.727Z,64.67
2019-02-21T13:59:06.896Z,64.87
2019-02-21T14:04:06.577Z,65.16
2019-02-21T14:09:07.102Z,65.95
2019-02-21T14:14:06.879Z,66.92
2019-02-21T14:18:06.517Z,66.96
2019-02-21T14:23:07.147Z,66.98
2019-02-21T14:28:06.356Z,67.18
2019-02-21T14:33:07.121Z,68.01
2019-02-21T14:38:07.074Z,68.35
2019-02-21T14:43:07.720Z,67.7
2019-02-21T14:48:07.978Z,68.31
2019-02-21T14:52:06.328Z,68.98
2019-02-21T14:57:06.856Z,73.34
2019-02-21T15:02:07.258Z,76.16
2019-02-21T15:07:07.450Z,75.65
2019-02-21T15:12:06.793Z,78.2
2019-02-21T15:17:06.188Z,80.16
2019-02-21T15:22:06.805Z,80.13
2019-02-21T15:27:08.640Z,80.17
2019-02-21T15:31:07.537Z,80.49
2019-02-21T15:36:07.356Z,80.16
2019-02-21T15:41:06.886Z,78.67
2019-02-21T15:46:08.243Z,79.12
2019-02-21T15:51:07.196Z,79.97
2019-02-21T15:56:07.629Z,80.23
2019-02-21T16:01:06.986Z,79.52
2019-02-21T16:05:07.412Z,78.74
2019-02-21T16:10:07.771Z,80.03
2019-02-21T16:15:09.061Z,79.95
2019-02-21T16:20:06.564Z,80.38
2019-02-21T16:25:07.457Z,79.67
2019-02-21T16:30:08.644Z,80.76
2019-02-21T16:35:06.837Z,79.48
2019-02-21T16:39:08.022Z,79.99
2019-02-21T16:44:07.150Z,79.54
2019-02-21T16:49:07.277Z,79.59
2019-02-21T16:54:07.418Z,78.86
2019-02-21T16:59:07.502Z,79.16
2019-02-21T17:04:07.335Z,79.93
2019-02-21T17:09:07.078Z,80.23
2019-02-21T17:14:06.794Z,80.44
2019-02-21T17:18:07.513Z,81.09
2019-02-21T17:23:07.394Z,80.35
2019-02-21T17:28:07.235Z,80.8
2019-02-21T17:33:06.981Z,80.7
2019-02-21T17:38:06.884Z,80.78
2019-02-21T17:43:07.241Z,81.04
2019-02-21T17:48:07.028Z,80.98
2019-02-21T17:52:06.245Z,81.63
2019-02-21T17:57:06.823Z,82.02
2019-02-21T18:02:07.010Z,81.36
2019-02-21T18:07:06.126Z,81.87
2019-02-21T18:12:06.366Z,81.27
2019-02-21T18:17:08.014Z,81.12
2019-02-21T18:22:06.148Z,80.57
2019-02-21T18:27:06.737Z,80.13
2019-02-21T18:31:07.730Z,79.58
2019-02-21T18:36:08.302Z,79.5
2019-02-21T18:41:06.759Z,80.24
2019-02-21T18:46:07.614Z,79.66
2019-02-21T18:51:07.140Z,79.96
2019-02-21T18:56:08.795Z,82.97
2019-02-21T19:01:06.378Z,86.38
2019-02-21T19:05:07.187Z,87.85
2019-02-21T19:10:07.512Z,89.04
2019-02-21T19:15:08.862Z,91
2019-02-21T19:20:07.039Z,92.85
2019-02-21T19:25:06.971Z,93.6
2019-02-21T19:30:07.781Z,94.12
2019-02-21T19:35:07.023Z,94.61
2019-02-21T19:39:07.588Z,95.26
2019-02-21T19:44:09.053Z,96.01
2019-02-21T19:49:07.675Z,96.3
2019-02-21T19:54:06.875Z,96.75
2019-02-21T19:59:07.437Z,97.09
2019-02-21T20:04:07.057Z,97.45
2019-02-21T20:09:07.535Z,97.5
2019-02-21T20:14:07.355Z,97.47
2019-02-21T20:18:07.441Z,97.85
2019-02-21T20:23:06.976Z,97.94
2019-02-21T20:24:06.797Z,97.94
2019-02-21T20:28:06.784Z,98.16
2019-02-21T20:33:06.096Z,98.24
2019-02-21T20:38:07.113Z,98.51
2019-02-21T20:43:06.929Z,98.83
2019-02-21T20:48:07.701Z,98.98
2019-02-21T20:53:06.974Z,99.05
2019-02-21T20:57:07.611Z,99.09
2019-02-21T21:02:06.474Z,98.98
2019-02-21T21:07:07.248Z,98.95
2019-02-21T21:12:06.124Z,98.89
2019-02-21T21:17:07.188Z,99.01
2019-02-21T21:22:06.498Z,99.09
2019-02-21T21:27:06.954Z,99.27
2019-02-21T21:32:07.180Z,99.45
2019-02-21T21:36:07.642Z,99.58
2019-02-21T21:41:07.025Z,99.59
2019-02-21T21:46:06.734Z,99.58
2019-02-21T21:51:07.698Z,99.54
2019-02-21T21:56:07.756Z,99.35
2019-02-21T22:01:07.111Z,99.35
2019-02-21T22:06:06.942Z,99.46
2019-02-21T22:10:07.451Z,99.47
2019-02-21T22:15:09.077Z,99.51
2019-02-21T22:16:06.827Z,99.51
2019-02-21T22:20:06.198Z,99.52
2019-02-21T22:25:07.654Z,99.61
2019-02-21T22:30:08.390Z,99.63
2019-02-21T22:35:07.102Z,99.79
2019-02-21T22:40:07.680Z,99.88
2019-02-21T22:45:08.639Z,99.98
2019-02-21T22:49:07.725Z,100.11
2019-02-21T22:54:06.712Z,100.14
2019-02-21T22:59:06.749Z,100.14
2019-02-21T23:04:07.473Z,100.2
2019-02-21T23:09:07.151Z,100.48
2019-02-21T23:14:07.387Z,100.76
2019-02-21T23:19:07.009Z,100.7
2019-02-21T23:24:07.224Z,100.73
2019-02-21T23:28:06.890Z,100.85
2019-02-21T23:33:07.014Z,100.92
2019-02-21T23:38:07.047Z,100.69
2019-02-21T23:43:07.369Z,100.53
2019-02-21T23:48:07.015Z,100.55
2019-02-21T23:53:06.916Z,100.54
2019-02-21T23:58:06.854Z,100.67
